CheckWX is a tool to help pilots better visualize weather data.  It is not intended as a substitute for an official pre-flight weather briefing.

08:05:41 UTC

OEJN TAF
King Abdulaziz International Airport
Jeddah, Saudi Arabia
TAF OEJN 190500Z 1906/2012 25012KT 9999 FEW040 SCT100 TEMPO 1906/1916 7000 SCT040 BECMG 1918/1920 VRB03KT

Mar-19@
06:00 UTC

Mar-19 @ 06:00 UTC

Mar-19@
18:00 UTC

Mar-19 @ 18:00 UTC

TAF OEJN 190500Z 1906/2012 25012KT 9999 FEW040 SCT100
Wind
  • 250° at 12 KTS
Cloud Levels
  • Few at 4,000' AGL
  • Scattered at 10,000' AGL

Mar-19@
06:00 UTC

Mar-19 @ 06:00 UTC

Mar-19@
16:00 UTC

Mar-19 @ 16:00 UTC

TEMPO 1906/1916 7000 SCT040

Temporary

Temporary Changes expected for less than half the time period

Cloud Levels
  • Scattered at 4,000' AGL

Mar-19@
18:00 UTC

Mar-19 @ 18:00 UTC

Mar-20@
12:00 UTC

Mar-20 @ 12:00 UTC

BECMG 1918/1920 VRB03KT

Becoming

Becoming Conditions expected by Tue, Mar 19, 2019 @ 20:00 UTC

Wind
  • Variable at 3 KTS
Cloud Levels
  • Few at 4,000' AGL
  • Scattered at 10,000' AGL